Terminal Aerodrome Forecast
Issued by NWS

Home | Current Version | Previous Version | Graphics & Text | Print | Product List | Glossary On
Versions: 1 2 3 4 5 6 7 8 9 10 11 12 13
000
FTUS43 KICT 191100
TAFRSL
TAF
KRSL 191120Z 1912/2012 18021G29KT P6SM BKN250
     FM191500 19024G34KT P6SM BKN250
     FM192200 18018G28KT P6SM BKN200
     FM200100 17015G23KT P6SM SCT120 BKN200=

USA.gov is the U.S. government's official web portal to all federal, state and local government web resources and services.